Time;durP1;ratioP1;P1;durP2;ratioP2;P2;SDS_P1;SDS_P2;PMS_P1;PMS_P2;Temp;Humidity;BMP_temperature;BMP_pressure;BME280_temperature;BME280_humidity;BME280_pressure;Samples;Min_cycle;Max_cycle;Signal;HPM_P1;HPM_P2
2023/04/18 00:03:22;;;;;;;5.97;4.50;;;;;;;17.41;57.19;99938.94;12793196;22;99129;-77
2023/04/18 00:08:27;;;;;;;8.50;4.95;;;;;;;17.23;58.84;99930.47;12794295;22;98961;-77
2023/04/18 00:13:30;;;;;;;6.10;4.40;;;;;;;17.44;56.19;99923.63;12794178;22;98884;-77
2023/04/18 00:18:35;;;;;;;7.28;4.13;;;;;;;17.51;55.72;99924.91;12795019;22;99226;-76
2023/04/18 00:23:39;;;;;;;6.43;5.55;;;;;;;17.07;59.33;99927.22;12794184;22;98646;-77
2023/04/18 00:28:42;;;;;;;7.45;5.22;;;;;;;16.85;60.40;99927.91;12794060;22;99258;-77
2023/04/18 00:33:47;;;;;;;7.80;5.10;;;;;;;16.76;60.80;99917.03;12794544;22;98882;-76
2023/04/18 00:38:50;;;;;;;4.78;4.07;;;;;;;16.99;58.52;99927.78;12795010;22;98856;-77
2023/04/18 00:43:53;;;;;;;5.50;4.25;;;;;;;17.26;56.29;99929.44;12794207;22;99075;-76
2023/04/18 00:48:58;;;;;;;5.82;4.25;;;;;;;17.24;56.95;99928.69;12793985;22;98827;-77
2023/04/18 00:54:02;;;;;;;7.43;4.25;;;;;;;17.55;54.76;99937.03;12791693;22;99419;-77
2023/04/18 00:59:07;;;;;;;5.85;3.90;;;;;;;17.64;54.32;99939.00;12793630;22;98934;-77
2023/04/18 01:04:11;;;;;;;4.70;4.05;;;;;;;17.61;54.08;99941.88;12793433;22;99286;-77
2023/04/18 01:09:15;;;;;;;5.00;4.25;;;;;;;17.75;53.71;99948.84;12793682;22;99011;-77
2023/04/18 01:14:20;;;;;;;6.88;4.30;;;;;;;17.88;52.90;99944.34;12793696;22;99283;-77
2023/04/18 01:19:24;;;;;;;6.60;4.22;;;;;;;17.93;53.08;99942.19;12793662;22;98858;-76
2023/04/18 01:24:30;;;;;;;7.55;3.83;;;;;;;18.02;52.50;99944.97;12793858;22;98822;-77
2023/04/18 01:29:33;;;;;;;7.00;4.10;;;;;;;18.17;51.75;99935.00;12794560;22;99215;-77
2023/04/18 01:34:39;;;;;;;5.00;4.07;;;;;;;18.17;52.00;99946.53;12793473;22;99045;-77
2023/04/18 01:39:43;;;;;;;6.22;3.33;;;;;;;18.19;51.29;99931.25;12793644;22;98936;-77
2023/04/18 01:44:47;;;;;;;4.82;3.10;;;;;;;18.44;50.04;99932.03;12792214;22;99411;-77
2023/04/18 01:49:50;;;;;;;6.88;3.70;;;;;;;18.52;49.50;99937.69;12793363;22;98963;-77
2023/04/18 01:54:54;;;;;;;4.50;3.17;;;;;;;18.69;48.13;99927.41;12792946;22;97291;-77
2023/04/18 01:59:58;;;;;;;5.07;2.95;;;;;;;18.76;47.64;99925.97;12793381;22;98965;-76
2023/04/18 02:05:01;;;;;;;3.03;2.65;;;;;;;18.77;46.83;99909.00;12792718;22;98890;-77
2023/04/18 02:10:07;;;;;;;3.38;2.63;;;;;;;18.88;46.40;99921.47;12793356;22;98849;-77
2023/04/18 02:15:11;;;;;;;4.72;2.55;;;;;;;18.93;44.54;99920.16;12793185;22;98104;-77
2023/04/18 02:20:14;;;;;;;3.13;1.93;;;;;;;19.04;43.88;99917.47;12793996;22;99300;-77
2023/04/18 02:25:22;;;;;;;3.00;2.30;;;;;;;19.09;42.96;99922.44;12793241;22;98963;-77
2023/04/18 02:30:25;;;;;;;3.30;2.13;;;;;;;19.12;41.69;99919.53;12792842;22;99127;-79
2023/04/18 02:35:29;;;;;;;3.83;1.85;;;;;;;19.18;41.13;99922.56;12791875;22;99109;-77
2023/04/18 02:40:34;;;;;;;4.87;1.80;;;;;;;19.25;39.25;99934.44;12793328;22;99227;-77
2023/04/18 02:45:37;;;;;;;;;;;;;;;19.24;38.34;99934.56;12793427;22;98902;-77
2023/04/18 02:50:40;;;;;;;2.90;1.70;;;;;;;19.25;38.21;99936.25;12792667;22;98927;-77
2023/04/18 02:55:45;;;;;;;3.47;1.50;;;;;;;19.20;37.28;99933.09;12790240;22;98886;-77
2023/04/18 03:00:49;;;;;;;2.65;1.35;;;;;;;19.20;36.84;99936.63;12790479;22;98801;-77
2023/04/18 03:05:52;;;;;;;4.25;1.30;;;;;;;19.21;35.89;99937.47;12790182;22;99002;-77
2023/04/18 03:10:57;;;;;;;4.85;1.30;;;;;;;19.11;35.89;99937.34;12791041;22;97937;-77
2023/04/18 03:16:01;;;;;;;5.35;1.35;;;;;;;19.08;35.27;99934.06;12791136;22;99049;-76
2023/04/18 03:21:06;;;;;;;3.70;1.37;;;;;;;19.05;34.79;99939.66;12792968;22;99166;-77
2023/04/18 03:26:12;;;;;;;;;;;;;;;19.00;33.63;99934.69;12791948;22;98954;-77
2023/04/18 03:31:15;;;;;;;3.42;1.40;;;;;;;18.98;33.68;99939.31;12791895;22;98367;-78
2023/04/18 03:36:24;;;;;;;2.00;1.10;;;;;;;18.96;33.15;99943.91;12792816;22;98957;-77
2023/04/18 03:41:28;;;;;;;1.88;1.10;;;;;;;18.93;33.06;99940.63;12792113;22;98916;-77
2023/04/18 03:46:31;;;;;;;;;;;;;;;18.81;32.89;99941.59;12792773;22;99181;-77
2023/04/18 03:51:42;;;;;;;3.47;1.00;;;;;;;18.82;32.74;99956.59;12792398;22;98893;-77
2023/04/18 03:56:47;;;;;;;2.63;1.05;;;;;;;18.77;32.08;99954.31;12792101;22;98844;-77
2023/04/18 04:01:50;;;;;;;3.92;1.10;;;;;;;18.77;31.36;99958.78;12793672;22;99009;-77
2023/04/18 04:06:54;;;;;;;3.35;1.33;;;;;;;18.66;31.68;99948.13;12792324;22;99291;-77
2023/04/18 04:11:58;;;;;;;2.25;1.00;;;;;;;18.62;31.38;99949.31;12791910;22;98895;-77
2023/04/18 04:17:01;;;;;;;;;;;;;;;18.50;31.41;99947.59;12791302;22;98909;-77
2023/04/18 04:22:04;;;;;;;1.50;0.63;;;;;;;18.49;30.71;99964.56;12791847;22;98802;-77
2023/04/18 04:27:11;;;;;;;1.20;0.70;;;;;;;18.44;30.36;99962.19;12791872;22;99042;-77
2023/04/18 04:32:15;;;;;;;3.22;0.98;;;;;;;18.34;30.39;99953.22;12791583;22;99165;-77
2023/04/18 04:37:19;;;;;;;4.15;1.00;;;;;;;18.31;30.17;99947.28;12791964;22;99412;-77
2023/04/18 04:42:25;;;;;;;3.28;0.90;;;;;;;18.19;29.56;99949.88;12791775;22;97810;-76
2023/04/18 04:47:28;;;;;;;2.92;1.00;;;;;;;18.12;29.94;99964.63;12792099;22;99125;-77
2023/04/18 04:52:32;;;;;;;2.03;0.70;;;;;;;18.11;29.73;99954.09;12792496;22;98823;-77
2023/04/18 04:57:37;;;;;;;4.90;1.50;;;;;;;18.03;28.92;99962.69;12791486;22;98896;-77
2023/04/18 05:02:40;;;;;;;1.77;0.90;;;;;;;18.01;28.85;99951.28;12791350;22;98058;-77
2023/04/18 05:07:44;;;;;;;2.10;1.02;;;;;;;17.96;29.22;99956.13;12789945;22;98353;-76
2023/04/18 05:12:49;;;;;;;2.78;0.98;;;;;;;17.87;28.86;99951.47;12791250;22;98874;-77
2023/04/18 05:17:52;;;;;;;3.10;0.88;;;;;;;17.84;28.19;99949.03;12791563;22;98828;-77
2023/04/18 05:22:55;;;;;;;2.47;0.90;;;;;;;17.68;29.33;99960.91;12790812;22;97903;-77
2023/04/18 05:28:03;;;;;;;0.85;0.47;;;;;;;17.51;29.81;99961.28;12791660;22;99941;-77
2023/04/18 05:33:06;;;;;;;1.70;0.70;;;;;;;17.34;31.01;99961.63;12790113;22;97778;-76
2023/04/18 05:38:10;;;;;;;4.15;1.00;;;;;;;17.27;31.32;99966.53;12790828;22;99233;-76
2023/04/18 05:43:14;;;;;;;2.35;1.00;;;;;;;17.28;30.20;99968.22;12791362;22;98183;-77
2023/04/18 05:48:18;;;;;;;2.03;0.85;;;;;;;17.20;30.00;99953.78;12791138;22;99220;-77
2023/04/18 05:53:21;;;;;;;2.45;0.70;;;;;;;17.25;29.72;99964.94;12790743;22;98901;-77
2023/04/18 05:58:27;;;;;;;1.38;0.75;;;;;;;17.18;30.10;99967.19;12790283;22;98066;-77
2023/04/18 06:03:30;;;;;;;1.23;0.70;;;;;;;17.16;29.67;99981.53;12790652;22;99180;-77
2023/04/18 06:08:34;;;;;;;3.45;0.80;;;;;;;17.16;30.20;99974.41;12791103;22;99063;-77
2023/04/18 06:13:39;;;;;;;1.75;0.90;;;;;;;17.09;29.99;99983.78;12790519;22;96655;-77
2023/04/18 06:18:43;;;;;;;1.50;0.80;;;;;;;17.04;30.19;99983.25;12790934;22;99158;-77
2023/04/18 06:23:46;;;;;;;2.00;0.80;;;;;;;17.16;30.24;99993.03;12790671;22;99511;-77
2023/04/18 06:28:50;;;;;;;1.33;0.73;;;;;;;17.43;30.07;99985.75;12791105;22;100540;-77
2023/04/18 06:33:54;;;;;;;1.42;0.65;;;;;;;17.76;28.95;99983.34;12791230;22;98851;-77
2023/04/18 06:38:57;;;;;;;3.03;0.80;;;;;;;17.91;28.99;99992.03;12790291;22;98838;-77
2023/04/18 06:44:01;;;;;;;4.00;0.95;;;;;;;17.90;29.31;99993.81;12790769;22;98856;-77
2023/04/18 06:49:06;;;;;;;1.05;0.60;;;;;;;17.97;29.49;100000.41;12788893;22;98406;-77
2023/04/18 06:54:10;;;;;;;2.35;0.70;;;;;;;18.17;29.33;100013.09;12790021;22;99160;-77
2023/04/18 06:59:15;;;;;;;2.05;0.70;;;;;;;18.39;28.96;100014.13;12790761;22;99205;-77
2023/04/18 07:04:18;;;;;;;;;;;;;;;18.48;28.69;100008.16;12790700;22;99336;-77
2023/04/18 07:09:22;;;;;;;1.90;0.82;;;;;;;18.61;29.12;100016.94;12789578;22;98274;-77
2023/04/18 07:14:27;;;;;;;1.33;0.73;;;;;;;18.84;28.52;100026.66;12790168;22;99123;-77
2023/04/18 07:19:30;;;;;;;1.27;0.63;;;;;;;18.73;28.60;100024.00;12789876;22;100281;-78
2023/04/18 07:24:33;;;;;;;1.63;0.57;;;;;;;18.97;28.95;100014.09;12790985;22;99111;-77
2023/04/18 07:29:38;;;;;;;1.77;0.52;;;;;;;18.98;28.67;100021.97;12789709;22;98991;-77
2023/04/18 07:34:41;;;;;;;0.65;0.60;;;;;;;19.23;28.71;100023.56;12789353;22;99068;-78
2023/04/18 07:39:45;;;;;;;1.67;0.90;;;;;;;19.26;28.84;100034.00;12787365;22;97888;-77
2023/04/18 07:44:49;;;;;;;3.03;0.85;;;;;;;19.16;28.99;100007.19;12789262;22;99122;-78
2023/04/18 07:49:53;;;;;;;1.27;0.60;;;;;;;19.35;28.81;100017.28;12789397;22;98930;-77
2023/04/18 07:54:56;;;;;;;1.70;1.08;;;;;;;19.61;28.99;100016.06;12789420;22;99016;-78
2023/04/18 08:00:01;;;;;;;1.52;0.90;;;;;;;19.68;28.69;100014.63;12789279;22;99495;-78
2023/04/18 08:05:04;;;;;;;2.78;0.90;;;;;;;20.01;28.59;100001.16;12792074;22;99065;-77
2023/04/18 08:10:09;;;;;;;2.75;0.93;;;;;;;20.32;28.32;100005.69;12791746;22;99279;-78
2023/04/18 08:15:13;;;;;;;2.35;0.80;;;;;;;20.32;28.21;99995.00;12792928;22;98923;-77
2023/04/18 08:20:17;;;;;;;2.10;0.85;;;;;;;20.38;28.63;100000.84;12791793;22;98887;-78
2023/04/18 08:25:20;;;;;;;3.15;1.20;;;;;;;20.64;28.11;99994.97;12792094;22;99073;-78
2023/04/18 08:30:24;;;;;;;1.77;0.80;;;;;;;20.91;28.02;100002.47;12790786;22;99034;-78
2023/04/18 08:35:28;;;;;;;1.60;0.70;;;;;;;20.63;28.42;99995.09;12791535;22;99397;-78
2023/04/18 08:40:31;;;;;;;4.03;0.90;;;;;;;21.19;28.19;99997.28;12791510;22;99262;-77
2023/04/18 08:45:37;;;;;;;1.23;0.90;;;;;;;21.08;28.09;99996.50;12792486;22;99272;-78
2023/04/18 08:50:40;;;;;;;2.05;0.90;;;;;;;21.34;27.49;99995.97;12791594;22;99263;-77
2023/04/18 08:55:46;;;;;;;1.60;0.90;;;;;;;21.69;27.62;99989.31;12791302;22;98558;-78
2023/04/18 09:00:52;;;;;;;1.73;0.80;;;;;;;21.38;27.63;99980.50;12791334;22;100177;-78
2023/04/18 09:06:07;;;;;;;2.42;0.70;;;;;;;21.35;28.00;99978.06;12792780;22;98891;-78
2023/04/18 09:11:24;;;;;;;2.25;1.00;;;;;;;21.40;27.74;99986.53;12791048;22;98959;-78
2023/04/18 09:16:46;;;;;;;1.55;0.90;;;;;;;21.33;27.75;99977.34;12791714;22;99020;-77
2023/04/18 09:21:58;;;;;;;2.15;0.90;;;;;;;22.13;27.08;99978.97;12790409;22;97819;-77
2023/04/18 09:27:03;;;;;;;1.60;0.90;;;;;;;22.01;26.69;99981.91;12791350;22;99212;-77
2023/04/18 09:32:07;;;;;;;2.58;1.08;;;;;;;21.97;26.64;99977.81;12791140;22;98802;-78
2023/04/18 09:37:12;;;;;;;1.55;0.90;;;;;;;21.86;27.07;99977.94;12790971;22;99032;-78
2023/04/18 09:42:15;;;;;;;1.90;0.93;;;;;;;22.42;26.68;99973.59;12791139;22;98924;-78
2023/04/18 09:47:20;;;;;;;1.42;0.80;;;;;;;22.60;26.80;99978.13;12791465;22;99024;-77
2023/04/18 09:52:25;;;;;;;2.25;0.93;;;;;;;22.80;25.74;99952.09;12791019;22;98948;-78
2023/04/18 09:57:30;;;;;;;3.17;1.10;;;;;;;23.11;26.17;99966.16;12791991;22;99278;-78
2023/04/18 10:02:47;;;;;;;2.35;0.90;;;;;;;22.57;26.28;99956.91;12790678;22;98938;-78
2023/04/18 10:07:50;;;;;;;2.95;0.98;;;;;;;23.13;26.04;99954.25;12791267;22;99246;-78
2023/04/18 10:12:55;;;;;;;3.33;1.00;;;;;;;22.87;26.34;99941.66;12789362;22;98888;-77
2023/04/18 10:18:02;;;;;;;1.60;0.93;;;;;;;22.88;25.42;99949.56;12791023;22;99018;-78
2023/04/18 10:23:37;;;;;;;1.67;0.93;;;;;;;23.54;25.63;99936.88;12790648;22;98975;-78
2023/04/18 10:28:51;;;;;;;1.50;0.82;;;;;;;23.53;26.04;99929.75;12791200;22;98785;-78
2023/04/18 10:33:58;;;;;;;2.25;0.80;;;;;;;23.43;25.44;99918.22;12790470;22;99037;-78
2023/04/18 10:39:24;;;;;;;2.25;0.90;;;;;;;23.61;25.13;99911.91;12790982;22;98586;-78
2023/04/18 10:44:27;;;;;;;2.72;1.00;;;;;;;23.83;25.54;99916.03;12790517;22;98981;-77
2023/04/18 10:49:32;;;;;;;2.00;1.50;;;;;;;23.83;25.00;99902.59;12791032;22;99084;-78
2023/04/18 10:54:38;;;;;;;3.03;1.05;;;;;;;23.80;25.24;99902.91;12790264;22;99018;-77
2023/04/18 10:59:43;;;;;;;1.35;0.90;;;;;;;23.96;25.93;99894.16;12790295;22;99092;-78
2023/04/18 11:04:50;;;;;;;2.22;1.30;;;;;;;23.99;25.32;99888.47;12788796;22;99445;-78
2023/04/18 11:09:54;;;;;;;1.98;1.08;;;;;;;23.89;25.41;99880.50;12790563;22;99121;-78
2023/04/18 11:14:58;;;;;;;3.08;0.98;;;;;;;24.05;24.83;99882.47;12790054;22;99472;-78
2023/04/18 11:20:07;;;;;;;2.55;1.20;;;;;;;24.43;25.21;99858.75;12790096;22;98683;-77
2023/04/18 11:25:11;;;;;;;2.45;1.10;;;;;;;24.34;25.50;99853.50;12789886;22;98922;-78
2023/04/18 11:30:15;;;;;;;1.63;1.00;;;;;;;24.04;25.07;99846.69;12789041;22;97817;-78
2023/04/18 11:35:20;;;;;;;2.70;1.13;;;;;;;24.03;25.28;99844.97;12789466;22;98892;-78
2023/04/18 11:40:23;;;;;;;1.70;1.00;;;;;;;23.93;26.00;99830.78;12793286;22;99040;-78
2023/04/18 11:45:27;;;;;;;1.60;1.20;;;;;;;23.87;26.12;99835.94;12780361;22;98930;-78
2023/04/18 11:50:36;;;;;;;1.73;1.20;;;;;;;23.88;26.00;99825.03;12792309;22;98970;-77
2023/04/18 11:55:39;;;;;;;1.33;0.90;;;;;;;24.15;25.83;99819.53;12790965;22;99043;-78
2023/04/18 12:00:43;;;;;;;2.17;1.33;;;;;;;24.10;25.63;99808.41;12791843;22;99163;-77
2023/04/18 12:05:47;;;;;;;1.48;1.15;;;;;;;23.90;26.48;99803.38;12792245;22;98732;-77
2023/04/18 12:10:52;;;;;;;3.10;0.82;;;;;;;23.76;26.10;99790.47;12792094;22;98921;-78
2023/04/18 12:15:56;;;;;;;2.17;1.02;;;;;;;23.67;26.04;99786.88;12791021;22;97824;-78
2023/04/18 12:21:04;;;;;;;1.30;0.90;;;;;;;23.50;25.97;99776.97;12791933;22;98935;-78
2023/04/18 12:26:12;;;;;;;1.20;0.82;;;;;;;23.56;26.07;99782.59;12791903;22;99000;-77
2023/04/18 12:31:15;;;;;;;1.67;1.15;;;;;;;23.62;26.02;99765.88;12792683;22;98998;-77
2023/04/18 12:36:22;;;;;;;3.03;1.27;;;;;;;23.91;26.32;99756.69;12791918;22;98140;-78
2023/04/18 12:41:25;;;;;;;1.63;0.90;;;;;;;23.99;26.12;99757.59;12779193;22;98904;-78
2023/04/18 12:46:29;;;;;;;1.47;0.83;;;;;;;23.98;26.22;99739.75;12790620;22;98988;-77
2023/04/18 12:51:33;;;;;;;2.23;1.00;;;;;;;23.93;25.80;99742.09;12791351;22;99287;-77
2023/04/18 12:56:37;;;;;;;3.30;1.00;;;;;;;24.49;27.32;99726.31;12791229;22;99104;-77
2023/04/18 13:01:40;;;;;;;3.17;1.40;;;;;;;24.47;26.31;99733.69;12791470;22;98643;-77
2023/04/18 13:06:45;;;;;;;2.27;1.20;;;;;;;24.47;26.05;99717.56;12792417;22;98916;-77
2023/04/18 13:11:48;;;;;;;0.98;0.80;;;;;;;24.67;26.22;99715.47;12791507;22;99213;-78
2023/04/18 13:16:51;;;;;;;2.40;1.20;;;;;;;24.79;26.20;99703.38;12791716;22;98926;-77
2023/04/18 13:21:56;;;;;;;2.33;0.90;;;;;;;24.65;25.21;99696.75;12792550;22;98867;-77
2023/04/18 13:27:01;;;;;;;1.58;0.80;;;;;;;24.95;25.86;99691.81;12791397;22;99471;-77
2023/04/18 13:32:04;;;;;;;2.63;1.10;;;;;;;25.15;26.56;99677.91;12791347;22;99001;-78
2023/04/18 13:37:09;;;;;;;2.20;0.88;;;;;;;25.32;25.95;99676.06;12790210;22;99255;-77
2023/04/18 13:42:13;;;;;;;1.33;0.70;;;;;;;25.43;25.72;99668.47;12790880;22;100133;-77
2023/04/18 13:47:19;;;;;;;2.33;1.17;;;;;;;25.39;24.78;99659.06;12791634;22;98942;-78
2023/04/18 13:52:24;;;;;;;1.95;0.90;;;;;;;25.28;24.69;99650.47;12791196;22;98954;-77
2023/04/18 13:57:30;;;;;;;3.08;0.90;;;;;;;25.45;25.20;99638.69;12790638;22;98901;-77
2023/04/18 14:02:34;;;;;;;2.60;0.85;;;;;;;25.66;25.04;99645.22;12790749;22;99273;-78
2023/04/18 14:07:39;;;;;;;1.25;0.85;;;;;;;25.82;24.01;99642.53;12791075;22;98957;-77
2023/04/18 14:12:42;;;;;;;0.98;0.70;;;;;;;25.76;24.20;99631.59;12790843;22;97656;-77
2023/04/18 14:17:45;;;;;;;2.73;1.00;;;;;;;25.99;24.17;99627.13;12790935;22;99546;-77
2023/04/18 14:22:50;;;;;;;1.40;0.90;;;;;;;26.42;25.46;99615.03;12790651;22;98910;-77
2023/04/18 14:28:06;;;;;;;2.58;0.90;;;;;;;26.41;24.34;99619.59;12790304;22;99036;-77
2023/04/18 14:33:10;;;;;;;1.25;0.75;;;;;;;26.51;24.92;99614.81;12790282;22;99338;-78
2023/04/18 14:38:14;;;;;;;3.03;1.10;;;;;;;26.46;23.98;99609.09;12791035;22;99143;-78
2023/04/18 14:43:18;;;;;;;2.00;1.00;;;;;;;27.00;22.87;99601.81;12790796;22;99284;-78
2023/04/18 14:48:21;;;;;;;2.70;1.02;;;;;;;27.13;23.09;99585.03;12790464;22;99032;-78
2023/04/18 14:53:26;;;;;;;3.38;1.00;;;;;;;27.01;24.30;99581.88;12790421;22;98907;-77
2023/04/18 14:58:29;;;;;;;2.90;0.90;;;;;;;27.07;24.53;99578.50;12790493;22;98886;-77
2023/04/18 15:03:33;;;;;;;2.07;0.80;;;;;;;27.15;23.92;99569.50;12791033;22;99015;-77
2023/04/18 15:08:37;;;;;;;;;;;;;;;27.17;24.35;99570.97;12790693;22;98979;-77
2023/04/18 15:13:40;;;;;;;;;;;;;;;27.26;24.32;99563.63;12790289;22;99105;-77
2023/04/18 15:18:44;;;;;;;2.25;1.00;;;;;;;27.26;24.29;99558.22;12789341;22;98806;-77
2023/04/18 15:23:48;;;;;;;2.03;1.20;;;;;;;27.22;24.11;99551.50;12789961;22;99416;-77
2023/04/18 15:28:53;;;;;;;3.40;1.05;;;;;;;27.44;24.45;99543.34;12789954;22;99383;-77
2023/04/18 15:33:57;;;;;;;4.13;1.25;;;;;;;27.34;24.56;99534.66;12789655;22;98730;-78
2023/04/18 15:39:03;;;;;;;2.93;1.20;;;;;;;27.43;24.33;99530.88;12789582;22;98994;-78
2023/04/18 15:44:06;;;;;;;2.15;1.50;;;;;;;27.85;25.61;99516.72;12789431;22;98929;-77
2023/04/18 15:49:10;;;;;;;3.83;1.80;;;;;;;27.96;24.98;99517.06;12789709;22;98949;-78
2023/04/18 15:54:14;;;;;;;3.72;1.65;;;;;;;27.97;26.08;99510.66;12790139;22;99093;-78
2023/04/18 15:59:18;;;;;;;3.97;2.00;;;;;;;27.90;26.50;99498.91;12789400;22;99038;-78
2023/04/18 16:04:22;;;;;;;6.75;1.88;;;;;;;27.78;27.27;99497.72;12789229;22;99026;-78
2023/04/18 16:09:27;;;;;;;3.63;2.05;;;;;;;27.61;27.12;99496.22;12787638;22;98815;-78
2023/04/18 16:14:30;;;;;;;4.10;1.63;;;;;;;27.55;27.52;99487.97;12788898;22;98808;-78
2023/04/18 16:19:37;;;;;;;2.53;1.88;;;;;;;27.42;27.57;99495.91;12789155;22;98956;-78
2023/04/18 16:24:41;;;;;;;3.97;1.65;;;;;;;27.24;26.44;99498.13;12791196;22;97984;-78
2023/04/18 16:29:46;;;;;;;4.90;1.60;;;;;;;27.13;27.28;99496.72;12792315;22;99234;-78
2023/04/18 16:34:49;;;;;;;3.88;1.60;;;;;;;27.09;27.12;99487.31;12791721;22;99039;-78
2023/04/18 16:39:54;;;;;;;4.45;1.67;;;;;;;26.95;27.63;99491.66;12792020;22;99169;-78
2023/04/18 16:44:57;;;;;;;2.97;1.60;;;;;;;26.81;27.19;99487.03;12792642;22;99302;-78
2023/04/18 16:50:00;;;;;;;2.67;1.80;;;;;;;26.70;27.77;99490.16;12791726;22;99077;-78
2023/04/18 16:55:06;;;;;;;3.35;1.73;;;;;;;26.67;28.47;99490.53;12791173;22;98921;-79
2023/04/18 17:00:12;;;;;;;2.95;1.58;;;;;;;26.63;28.59;99507.25;12790701;22;99224;-78
2023/04/18 17:05:16;;;;;;;2.97;1.70;;;;;;;26.46;28.24;99494.91;12791405;22;98871;-78
2023/04/18 17:10:20;;;;;;;;;;;;;;;26.24;27.21;99493.88;12792437;22;98867;-78
2023/04/18 17:15:24;;;;;;;3.55;1.70;;;;;;;26.23;28.03;99494.03;12792113;22;98933;-78
2023/04/18 17:20:27;;;;;;;4.95;1.75;;;;;;;26.09;26.93;99497.50;12791497;22;99081;-78
2023/04/18 17:25:32;;;;;;;3.03;1.80;;;;;;;26.12;27.60;99494.44;12791540;22;99074;-78
2023/04/18 17:30:40;;;;;;;3.28;1.60;;;;;;;26.04;26.71;99484.53;12791341;22;98902;-78
2023/04/18 17:35:43;;;;;;;3.85;1.80;;;;;;;26.04;27.38;99489.91;12791882;22;98897;-78
2023/04/18 17:40:48;;;;;;;3.13;1.83;;;;;;;26.01;27.31;99497.53;12791261;22;99076;-78
2023/04/18 17:45:51;;;;;;;3.30;1.95;;;;;;;25.96;27.22;99505.31;12791436;22;98903;-78
2023/04/18 17:50:54;;;;;;;3.20;1.67;;;;;;;25.80;26.60;99509.75;12790102;22;98663;-78
2023/04/18 17:55:59;;;;;;;3.03;1.50;;;;;;;25.76;27.74;99510.31;12791329;22;99117;-78
2023/04/18 18:01:02;;;;;;;3.03;1.65;;;;;;;25.60;27.19;99504.94;12791001;22;99272;-78
2023/04/18 18:06:06;;;;;;;3.87;1.73;;;;;;;25.44;28.17;99504.97;12791768;22;99185;-78
2023/04/18 18:11:11;;;;;;;4.80;1.77;;;;;;;25.23;28.77;99504.69;12790960;22;98777;-78
2023/04/18 18:16:14;;;;;;;2.90;1.70;;;;;;;25.00;29.08;99519.91;12791141;22;98741;-78
2023/04/18 18:21:17;;;;;;;3.00;1.60;;;;;;;24.79;29.37;99520.38;12791036;22;99014;-78
2023/04/18 18:26:22;;;;;;;3.43;1.80;;;;;;;24.60;29.67;99515.31;12791751;22;98882;-78
2023/04/18 18:31:25;;;;;;;2.45;1.70;;;;;;;24.45;30.00;99525.88;12790473;22;99053;-78
2023/04/18 18:36:29;;;;;;;4.40;1.90;;;;;;;24.24;30.96;99530.00;12791067;22;98882;-78
2023/04/18 18:41:33;;;;;;;3.30;1.67;;;;;;;24.03;31.23;99530.47;12789535;22;98859;-78
2023/04/18 18:46:37;;;;;;;4.18;2.20;;;;;;;23.81;32.58;99539.13;12789857;22;98945;-78
2023/04/18 18:51:40;;;;;;;7.50;3.67;;;;;;;23.60;33.44;99541.34;12790353;22;99029;-78
2023/04/18 18:56:45;;;;;;;7.63;3.92;;;;;;;23.36;34.03;99558.16;12789663;22;97907;-77
2023/04/18 19:01:48;;;;;;;4.07;2.50;;;;;;;23.24;34.11;99558.56;12790368;22;98982;-78
2023/04/18 19:06:52;;;;;;;5.93;2.42;;;;;;;23.10;34.46;99561.81;12790188;22;99252;-78
2023/04/18 19:11:57;;;;;;;4.10;2.13;;;;;;;22.98;34.17;99563.06;12790717;22;98946;-78
2023/04/18 19:17:00;;;;;;;4.28;2.25;;;;;;;22.94;35.04;99575.94;12791402;22;99044;-78
2023/04/18 19:22:05;;;;;;;4.10;2.42;;;;;;;22.70;37.20;99578.38;12790097;22;98963;-78
2023/04/18 19:27:10;;;;;;;5.20;2.47;;;;;;;22.32;37.92;99592.06;12790043;22;98857;-78
2023/04/18 19:32:13;;;;;;;4.65;2.58;;;;;;;22.30;38.44;99602.94;12787921;22;99117;-78
2023/04/18 19:37:16;;;;;;;5.90;2.90;;;;;;;22.04;38.91;99603.81;12790183;22;99130;-78
2023/04/18 19:42:21;;;;;;;5.72;2.70;;;;;;;21.68;40.97;99616.19;12789011;22;98338;-77
2023/04/18 19:47:24;;;;;;;6.40;3.25;;;;;;;21.32;42.48;99622.34;12789499;22;98942;-78
2023/04/18 19:52:28;;;;;;;3.27;2.40;;;;;;;20.96;43.03;99621.22;12789222;22;98972;-77
2023/04/18 19:57:37;;;;;;;4.18;2.30;;;;;;;20.85;43.77;99628.53;12790765;22;98872;-78
2023/04/18 20:02:41;;;;;;;5.22;2.22;;;;;;;20.73;42.94;99646.56;12792141;22;99093;-78
2023/04/18 20:07:45;;;;;;;4.50;2.47;;;;;;;20.89;41.66;99649.53;12793448;22;99199;-78
2023/04/18 20:12:50;;;;;;;3.38;2.28;;;;;;;20.90;42.68;99672.59;12791831;22;99011;-78
2023/04/18 20:17:53;;;;;;;5.05;2.28;;;;;;;20.90;42.64;99679.78;12792298;22;99026;-78
2023/04/18 20:22:56;;;;;;;3.90;2.25;;;;;;;20.67;44.12;99679.19;12790948;22;98942;-78
2023/04/18 20:28:01;;;;;;;4.45;2.70;;;;;;;20.51;44.49;99688.72;12791814;22;98968;-78
2023/04/18 20:33:05;;;;;;;7.65;3.10;;;;;;;20.15;45.69;99684.78;12791599;22;98897;-78
2023/04/18 20:38:09;;;;;;;5.68;3.05;;;;;;;19.95;46.29;99689.19;12791906;22;98894;-78
2023/04/18 20:43:16;;;;;;;4.63;2.70;;;;;;;19.40;48.43;99691.34;12792350;22;98895;-78
2023/04/18 20:48:19;;;;;;;5.82;2.70;;;;;;;19.54;47.19;99694.59;12791597;22;99181;-77
2023/04/18 20:53:24;;;;;;;5.47;2.50;;;;;;;19.49;47.12;99695.94;12791256;22;98892;-78
2023/04/18 20:58:29;;;;;;;4.80;2.28;;;;;;;19.35;47.41;99697.09;12792962;22;98848;-77
2023/04/18 21:03:33;;;;;;;4.88;2.30;;;;;;;18.99;47.64;99702.81;12791650;22;99369;-78
2023/04/18 21:08:38;;;;;;;3.77;2.40;;;;;;;19.10;46.66;99705.44;12791752;22;99162;-78
2023/04/18 21:13:42;;;;;;;;;;;;;;;19.31;46.49;99706.31;12790921;22;99225;-77
2023/04/18 21:18:45;;;;;;;5.70;2.50;;;;;;;19.06;47.49;99712.84;12792115;22;99036;-77
2023/04/18 21:23:48;;;;;;;5.03;2.33;;;;;;;18.98;47.70;99707.31;12791398;22;98992;-78
2023/04/18 21:28:56;;;;;;;5.97;2.58;;;;;;;18.72;47.97;99707.72;12791035;22;99070;-77
2023/04/18 21:34:00;;;;;;;4.57;2.17;;;;;;;18.77;47.02;99710.88;12790985;22;99116;-77
2023/04/18 21:39:04;;;;;;;;;;;;;;;18.31;48.46;99710.19;12792017;22;99617;-77
2023/04/18 21:44:09;;;;;;;4.80;2.20;;;;;;;18.83;46.57;99700.56;12791665;22;98744;-77
2023/04/18 21:49:12;;;;;;;3.47;2.13;;;;;;;18.93;45.93;99701.50;12792092;22;99147;-78
2023/04/18 21:54:16;;;;;;;4.05;2.25;;;;;;;18.72;47.18;99695.25;12791403;22;99270;-78
2023/04/18 21:59:20;;;;;;;3.60;2.50;;;;;;;18.61;48.12;99691.78;12791077;22;99214;-77
2023/04/18 22:04:24;;;;;;;;;;;;;;;17.87;49.12;99698.56;12790321;22;99391;-78
2023/04/18 22:09:30;;;;;;;4.35;2.72;;;;;;;17.69;49.69;99697.34;12791866;22;99180;-77
2023/04/18 22:14:34;;;;;;;5.78;2.78;;;;;;;17.51;50.49;99689.94;12789875;22;99124;-78
2023/04/18 22:19:38;;;;;;;;;;;;;;;17.16;51.97;99692.56;12790736;22;99127;-78
2023/04/18 22:24:41;;;;;;;6.47;2.78;;;;;;;17.60;50.56;99700.72;12791120;22;98861;-77
2023/04/18 22:29:49;;;;;;;5.45;2.70;;;;;;;17.77;49.32;99697.59;12790509;22;99245;-77
2023/04/18 22:34:52;;;;;;;;;;;;;;;17.92;49.73;99712.38;12790925;22;99020;-77
2023/04/18 22:39:55;;;;;;;4.85;3.17;;;;;;;17.32;51.45;99705.56;12792103;22;99013;-77
2023/04/18 22:45:00;;;;;;;5.43;3.10;;;;;;;17.74;50.32;99707.66;12790433;22;98794;-77
2023/04/18 22:50:03;;;;;;;;;;;;;;;17.37;50.79;99714.91;12791077;22;98929;-77
2023/04/18 22:55:07;;;;;;;6.28;2.80;;;;;;;17.53;50.28;99711.94;12789629;22;99194;-78
2023/04/18 23:00:13;;;;;;;5.23;3.37;;;;;;;17.57;50.30;99719.56;12790298;22;98870;-78
2023/04/18 23:05:16;;;;;;;5.75;3.00;;;;;;;17.27;51.68;99713.91;12790184;22;97357;-78
2023/04/18 23:10:20;;;;;;;7.28;3.55;;;;;;;16.89;52.30;99719.44;12790236;22;98839;-78
2023/04/18 23:15:25;;;;;;;7.10;3.22;;;;;;;16.89;53.04;99719.44;12790105;22;99348;-77
2023/04/18 23:20:29;;;;;;;6.03;3.28;;;;;;;16.87;53.43;99717.81;12789777;22;99438;-77
2023/04/18 23:25:33;;;;;;;6.07;3.15;;;;;;;16.78;53.62;99718.50;12788509;22;99322;-78
2023/04/18 23:30:37;;;;;;;6.57;3.20;;;;;;;17.19;52.58;99718.09;12788538;22;99355;-77
2023/04/18 23:35:41;;;;;;;5.57;3.72;;;;;;;17.24;52.53;99722.13;12792384;22;99301;-77
2023/04/18 23:40:44;;;;;;;8.38;4.10;;;;;;;17.23;52.22;99717.75;12790235;22;99122;-77